Time;durP1;ratioP1;P1;durP2;ratioP2;P2;SDS_P1;SDS_P2;PMS_P1;PMS_P2;Temp;Humidity;BMP_temperature;BMP_pressure;BME280_temperature;BME280_humidity;BME280_pressure;Samples;Min_cycle;Max_cycle;Signal;HPM_P1;HPM_P2
2023/10/11 00:00:51;;;;;;;7.63;2.90;;;;;;;16.73;85.38;95883.75;4347798;32;20208;-62
2023/10/11 00:05:53;;;;;;;1.63;1.43;;;;;;;16.92;85.21;95891.44;4396328;32;20168;-62
2023/10/11 00:08:25;;;;;;;3.63;1.80;;;;;;;17.00;84.56;95901.37;4395028;32;20183;-62
2023/10/11 00:10:59;;;;;;;1.30;1.30;;;;;;;16.89;84.73;95900.13;4397840;32;20236;-62
2023/10/11 00:13:32;;;;;;;3.67;1.87;;;;;;;16.99;84.82;95897.09;4385057;32;20247;-62
2023/10/11 00:16:13;;;;;;;10.07;2.23;;;;;;;17.00;84.61;95892.53;4389481;32;20246;-62
2023/10/11 00:18:41;;;;;;;1.53;1.40;;;;;;;16.95;84.59;95890.81;4399843;32;20177;-62
2023/10/11 00:21:15;;;;;;;1.47;1.23;;;;;;;16.93;84.55;95886.88;4371843;32;20227;-62
2023/10/11 00:23:52;;;;;;;4.50;1.87;;;;;;;16.98;84.43;95895.53;4383567;32;20200;-62
2023/10/11 00:26:18;;;;;;;3.77;1.47;;;;;;;16.90;84.74;95888.28;4384176;32;20222;-62
2023/10/11 00:28:45;;;;;;;2.63;1.70;;;;;;;16.83;84.82;95893.37;4385410;32;20180;-62
2023/10/11 00:31:17;;;;;;;2.17;1.50;;;;;;;16.88;84.60;95887.03;4391928;32;20179;-62
2023/10/11 00:33:44;;;;;;;1.23;1.13;;;;;;;16.80;84.47;95883.28;4368213;32;20188;-62
2023/10/11 00:36:09;;;;;;;1.80;1.50;;;;;;;16.79;84.83;95887.84;4359107;32;20200;-62
2023/10/11 00:38:51;;;;;;;1.40;1.30;;;;;;;16.70;85.17;95876.34;4380277;32;20192;-62
2023/10/11 00:41:18;;;;;;;3.23;2.23;;;;;;;16.81;84.82;95879.50;4398802;32;20267;-62
2023/10/11 00:43:53;;;;;;;1.30;1.27;;;;;;;16.71;84.52;95874.47;4369753;32;20282;-62
2023/10/11 00:46:27;;;;;;;1.33;1.30;;;;;;;16.78;84.79;95874.78;4370013;32;20186;-62
2023/10/11 00:48:54;;;;;;;4.10;2.40;;;;;;;16.81;84.11;95872.25;4370602;32;20184;-62
2023/10/11 00:51:33;;;;;;;7.50;1.63;;;;;;;16.58;85.15;95870.06;4391899;32;20199;-62
2023/10/11 00:54:12;;;;;;;2.30;1.77;;;;;;;16.69;84.81;95869.41;4377845;32;20188;-62
2023/10/11 00:56:43;;;;;;;3.73;1.97;;;;;;;16.77;84.48;95867.84;4386158;32;20179;-62
2023/10/11 00:59:14;;;;;;;5.30;1.60;;;;;;;16.73;84.65;95858.84;4403090;32;20177;-62
2023/10/11 01:01:42;;;;;;;1.83;0.97;;;;;;;16.65;84.62;95862.31;4396831;32;20184;-62
2023/10/11 01:04:10;;;;;;;2.07;1.93;;;;;;;16.68;84.33;95864.38;4402770;32;20181;-62
2023/10/11 01:06:38;;;;;;;1.47;1.47;;;;;;;16.65;84.86;95856.97;4359124;32;20192;-62
2023/10/11 01:09:28;;;;;;;8.03;1.87;;;;;;;16.70;84.71;95856.81;4344675;32;20205;-62
2023/10/11 01:11:54;;;;;;;2.20;2.00;;;;;;;16.71;85.12;95863.75;4388397;32;20191;-61
2023/10/11 01:14:24;;;;;;;0.97;0.97;;;;;;;16.68;84.46;95859.00;4385787;32;20198;-62
2023/10/11 01:16:55;;;;;;;1.40;1.40;;;;;;;16.59;84.95;95860.91;4397201;32;20237;-62
2023/10/11 01:19:21;;;;;;;1.63;1.53;;;;;;;16.56;84.77;95861.53;4396250;32;20172;-62
2023/10/11 01:21:52;;;;;;;1.43;1.33;;;;;;;16.61;84.86;95858.69;4404182;32;20194;-62
2023/10/11 01:24:21;;;;;;;2.63;1.83;;;;;;;16.48;85.29;95850.50;4405289;32;20268;-62
2023/10/11 01:26:46;;;;;;;1.40;1.30;;;;;;;16.66;84.90;95847.81;4378115;32;20175;-62
2023/10/11 01:29:12;;;;;;;1.70;1.60;;;;;;;16.32;85.71;95851.31;4402926;32;20192;-62
2023/10/11 01:31:43;;;;;;;1.83;1.67;;;;;;;16.42;85.08;95846.41;4377814;32;20192;-62
2023/10/11 01:34:14;;;;;;;2.97;1.63;;;;;;;16.55;85.42;95843.88;4393215;32;20184;-62
2023/10/11 01:36:42;;;;;;;1.40;1.30;;;;;;;16.36;86.05;95849.59;4401099;32;20212;-63
2023/10/11 01:39:11;;;;;;;1.90;1.80;;;;;;;16.34;84.82;95847.22;4406413;32;20233;-62
2023/10/11 01:41:42;;;;;;;6.03;2.13;;;;;;;16.21;85.15;95850.84;4385221;32;20202;-62
2023/10/11 01:44:08;;;;;;;1.27;1.27;;;;;;;16.40;85.38;95856.69;4388796;32;20241;-62
2023/10/11 01:46:39;;;;;;;1.23;1.13;;;;;;;16.43;85.38;95847.19;4397787;32;20209;-62
2023/10/11 01:49:08;;;;;;;8.23;1.73;;;;;;;16.56;85.12;95848.16;4403823;32;20246;-62
2023/10/11 01:52:12;;;;;;;1.40;1.37;;;;;;;16.54;84.84;95851.12;4381944;32;20184;-62
2023/10/11 01:54:28;;;;;;;3.90;2.27;;;;;;;16.24;84.95;95849.44;4383012;32;20196;-62
2023/10/11 01:57:01;;;;;;;5.70;1.90;;;;;;;16.03;86.31;95849.28;4376507;32;20181;-62
2023/10/11 01:59:28;;;;;;;2.37;2.00;;;;;;;16.09;87.34;95853.38;4355456;32;20260;-62
2023/10/11 02:02:02;;;;;;;1.57;1.47;;;;;;;16.34;86.03;95841.88;4397738;32;20190;-60
2023/10/11 02:04:32;;;;;;;4.37;2.23;;;;;;;16.41;85.58;95847.53;4385930;32;20220;-62
2023/10/11 02:07:00;;;;;;;1.50;1.23;;;;;;;16.34;85.66;95844.56;4397381;32;20266;-62
2023/10/11 02:09:26;;;;;;;1.50;1.40;;;;;;;16.46;85.10;95843.88;4380443;32;20196;-62
2023/10/11 02:11:52;;;;;;;6.13;1.90;;;;;;;16.51;85.10;95838.38;4364695;32;20184;-63
2023/10/11 02:14:22;;;;;;;1.40;1.30;;;;;;;16.43;84.29;95831.91;4401544;32;20291;-62
2023/10/11 02:16:48;;;;;;;1.80;1.33;;;;;;;16.19;84.82;95839.69;4392787;32;20197;-62
2023/10/11 02:19:15;;;;;;;6.70;2.30;;;;;;;16.40;84.91;95837.16;4399498;32;20335;-62
2023/10/11 02:21:44;;;;;;;1.27;1.17;;;;;;;16.34;85.29;95833.84;4365192;32;20247;-62
2023/10/11 02:24:14;;;;;;;1.57;1.40;;;;;;;16.31;84.95;95841.72;4385388;32;20184;-62
2023/10/11 02:26:49;;;;;;;1.23;1.13;;;;;;;16.30;85.54;95846.28;4402945;32;20248;-62
2023/10/11 02:29:21;;;;;;;1.27;1.27;;;;;;;16.35;85.45;95838.09;4379609;32;20336;-62
2023/10/11 02:31:52;;;;;;;1.67;1.40;;;;;;;16.29;85.14;95838.56;4363279;32;20267;-62
2023/10/11 02:34:19;;;;;;;3.03;1.87;;;;;;;16.35;84.02;95838.09;4414007;32;20213;-62
2023/10/11 02:36:57;;;;;;;1.23;1.23;;;;;;;16.44;84.01;95838.06;4381727;32;20218;-62
2023/10/11 02:39:31;;;;;;;1.83;1.73;;;;;;;16.37;84.12;95838.56;4389511;32;20226;-62
2023/10/11 02:41:59;;;;;;;6.53;1.93;;;;;;;16.39;84.08;95841.72;4385224;32;20202;-62
2023/10/11 02:44:25;;;;;;;1.30;1.17;;;;;;;16.44;84.27;95836.19;4402201;32;20199;-62
2023/10/11 02:46:52;;;;;;;1.33;1.23;;;;;;;16.37;84.51;95835.09;4408475;32;20188;-62
2023/10/11 02:49:21;;;;;;;1.63;1.50;;;;;;;16.39;84.23;95831.00;4408126;32;20180;-62
2023/10/11 02:52:13;;;;;;;1.43;1.33;;;;;;;16.24;83.96;95833.34;4403918;32;20309;-62
2023/10/11 02:54:39;;;;;;;2.10;1.90;;;;;;;16.25;85.17;95829.59;4388111;32;20195;-62
2023/10/11 02:57:21;;;;;;;6.00;1.80;;;;;;;16.32;84.07;95825.34;4382386;32;20192;-61
2023/10/11 02:59:51;;;;;;;13.30;3.00;;;;;;;16.21;84.62;95826.00;4404029;32;20282;-61
2023/10/11 03:02:21;;;;;;;1.07;1.07;;;;;;;16.29;84.71;95825.97;4407474;32;20215;-61
2023/10/11 03:04:48;;;;;;;1.20;1.20;;;;;;;16.04;85.48;95824.06;4379884;32;20290;-63
2023/10/11 03:07:23;;;;;;;1.30;1.23;;;;;;;16.05;85.66;95831.00;4397523;32;20255;-61
2023/10/11 03:10:00;;;;;;;0.97;0.97;;;;;;;16.15;85.29;95814.66;4370470;32;20196;-61
2023/10/11 03:12:30;;;;;;;1.53;1.43;;;;;;;16.28;84.70;95818.25;4395786;32;20183;-61
2023/10/11 03:14:56;;;;;;;1.47;1.37;;;;;;;16.08;83.86;95823.13;4374159;32;20201;-61
2023/10/11 03:17:26;;;;;;;4.83;1.67;;;;;;;16.20;85.29;95816.37;4364307;32;20184;-61
2023/10/11 03:19:52;;;;;;;1.73;1.13;;;;;;;16.24;84.83;95828.00;4395701;32;20187;-61
2023/10/11 03:22:20;;;;;;;1.83;1.73;;;;;;;16.11;84.38;95825.19;4373013;32;20187;-61
2023/10/11 03:25:00;;;;;;;1.90;1.80;;;;;;;16.21;84.33;95823.31;4388204;32;20188;-61
2023/10/11 03:27:27;;;;;;;1.70;1.33;;;;;;;16.27;84.10;95822.03;4394377;32;20176;-61
2023/10/11 03:29:56;;;;;;;1.53;1.47;;;;;;;16.00;84.99;95823.16;4409690;32;20180;-61
2023/10/11 03:32:25;;;;;;;1.47;1.37;;;;;;;15.94;85.16;95824.41;4407108;32;20192;-61
2023/10/11 03:34:51;;;;;;;3.83;1.63;;;;;;;16.08;84.46;95830.38;4382055;32;20183;-61
2023/10/11 03:37:21;;;;;;;1.93;1.50;;;;;;;16.04;84.82;95832.09;4352529;32;20234;-61
2023/10/11 03:39:56;;;;;;;5.33;2.27;;;;;;;15.75;85.08;95824.72;4385913;32;20225;-61
2023/10/11 03:45:10;;;;;;;2.83;1.43;;;;;;;15.95;85.58;95837.47;4392835;32;20210;-62
2023/10/11 03:47:38;;;;;;;1.43;1.33;;;;;;;15.93;85.34;95828.19;4383388;32;20242;-61
2023/10/11 03:50:11;;;;;;;1.87;1.50;;;;;;;15.76;86.10;95832.44;4400584;32;20276;-61
2023/10/11 03:52:40;;;;;;;2.53;1.70;;;;;;;15.68;86.20;95825.16;4394966;32;20177;-61
2023/10/11 03:55:11;;;;;;;1.17;1.07;;;;;;;15.98;85.38;95828.03;4393866;32;20176;-61
2023/10/11 03:57:42;;;;;;;2.00;1.63;;;;;;;15.91;85.73;95825.03;4402205;32;20194;-61
2023/10/11 04:00:24;;;;;;;1.57;1.47;;;;;;;16.04;84.86;95824.06;4390976;32;20195;-61
2023/10/11 04:02:57;;;;;;;2.60;1.67;;;;;;;15.83;85.55;95818.56;4366179;32;20228;-61
2023/10/11 04:05:28;;;;;;;1.23;1.23;;;;;;;15.85;84.32;95818.25;4358844;32;20185;-61
2023/10/11 04:07:57;;;;;;;2.07;1.80;;;;;;;16.07;84.65;95810.06;4394125;32;20184;-60
2023/10/11 04:10:38;;;;;;;0.93;0.93;;;;;;;16.00;84.56;95812.44;4387783;32;20210;-61
2023/10/11 04:13:13;;;;;;;14.20;1.73;;;;;;;15.88;85.12;95814.94;4389899;32;20184;-61
2023/10/11 04:15:49;;;;;;;2.10;1.67;;;;;;;16.06;84.38;95811.97;4396707;32;20202;-61
2023/10/11 04:18:43;;;;;;;1.20;1.10;;;;;;;16.05;84.73;95810.38;4402746;32;20278;-61
2023/10/11 04:23:39;;;;;;;2.00;1.23;;;;;;;16.18;83.94;95808.66;4403940;32;20223;-62
2023/10/11 04:26:32;;;;;;;5.77;2.07;;;;;;;16.19;83.73;95812.91;4400446;32;20297;-62
2023/10/11 04:29:06;;;;;;;2.17;1.77;;;;;;;16.13;84.50;95806.94;4360978;32;20184;-62
2023/10/11 04:31:55;;;;;;;3.17;1.70;;;;;;;16.16;83.87;95813.53;4375275;32;20183;-61
2023/10/11 04:34:23;;;;;;;1.07;1.07;;;;;;;16.07;84.33;95812.75;4408226;32;20210;-62
2023/10/11 04:36:55;;;;;;;1.93;1.83;;;;;;;16.12;84.34;95807.25;4364308;32;20252;-61
2023/10/11 04:39:49;;;;;;;1.40;1.40;;;;;;;16.17;83.79;95812.44;4404131;32;20188;-61
2023/10/11 04:42:27;;;;;;;1.30;1.20;;;;;;;16.13;83.60;95812.28;4404234;32;20260;-61
2023/10/11 04:44:54;;;;;;;2.90;1.23;;;;;;;16.14;84.29;95813.06;4405715;32;20187;-61
2023/10/11 04:47:24;;;;;;;1.07;0.97;;;;;;;16.05;83.63;95809.59;4402520;32;20250;-61
2023/10/11 04:49:54;;;;;;;3.07;1.23;;;;;;;16.03;84.43;95807.22;4352860;32;20194;-61
2023/10/11 04:52:26;;;;;;;5.33;2.30;;;;;;;16.08;84.40;95822.34;4381146;32;20195;-62
2023/10/11 04:54:54;;;;;;;1.93;1.83;;;;;;;16.05;84.24;95814.94;4398233;32;20184;-61
2023/10/11 04:57:34;;;;;;;3.23;1.43;;;;;;;16.11;84.16;95813.69;4395046;32;20192;-61
2023/10/11 05:00:07;;;;;;;6.03;1.33;;;;;;;16.19;84.11;95818.28;4389410;32;20240;-61
2023/10/11 05:02:38;;;;;;;4.73;1.07;;;;;;;16.01;84.09;95819.34;4387925;32;20187;-61
2023/10/11 05:05:10;;;;;;;1.27;1.17;;;;;;;15.89;84.04;95830.69;4407069;32;20216;-61
2023/10/11 05:07:46;;;;;;;1.07;1.07;;;;;;;15.99;84.53;95822.38;4396443;32;20191;-61
2023/10/11 05:10:43;;;;;;;1.23;1.13;;;;;;;16.06;84.34;95822.66;4406170;32;20172;-61
2023/10/11 05:13:13;;;;;;;1.40;1.30;;;;;;;15.87;85.29;95821.41;4405157;32;20215;-61
2023/10/11 05:15:48;;;;;;;1.60;1.47;;;;;;;15.73;85.58;95827.69;4396158;32;20179;-61
2023/10/11 05:18:23;;;;;;;1.40;1.30;;;;;;;15.67;84.90;95828.94;4396699;32;20365;-61
2023/10/11 05:20:57;;;;;;;0.80;0.80;;;;;;;15.79;85.25;95829.09;4406472;32;20202;-61
2023/10/11 05:23:52;;;;;;;1.40;1.03;;;;;;;15.63;85.01;95833.34;4392969;32;20190;-61
2023/10/11 05:29:09;;;;;;;2.53;2.10;;;;;;;15.73;85.69;95834.94;4394805;32;20241;-61
2023/10/11 05:32:19;;;;;;;7.67;2.07;;;;;;;15.69;85.56;95834.78;4400084;32;20215;-61
2023/10/11 05:34:45;;;;;;;3.20;1.50;;;;;;;15.88;85.50;95833.69;4347367;32;20188;-61
2023/10/11 05:51:00;;;;;;;1.10;1.10;;;;;;;15.84;85.23;95846.09;4384182;32;20225;-62
2023/10/11 05:53:25;;;;;;;7.00;1.77;;;;;;;15.93;84.84;95852.28;4395718;32;20223;-62
2023/10/11 05:55:52;;;;;;;2.23;1.20;;;;;;;15.84;84.43;95846.91;4392079;32;20250;-62
2023/10/11 05:58:20;;;;;;;6.47;1.50;;;;;;;15.96;84.92;95852.44;4375318;32;20171;-62
2023/10/11 06:00:49;;;;;;;2.03;1.93;;;;;;;16.00;85.10;95849.91;4369659;32;20227;-62
2023/10/11 06:03:16;;;;;;;1.20;1.20;;;;;;;16.04;85.01;95848.16;4406622;32;20206;-62
2023/10/11 06:05:42;;;;;;;0.93;0.93;;;;;;;16.03;84.63;95854.63;4398501;32;20225;-61
2023/10/11 06:08:15;;;;;;;1.50;1.50;;;;;;;15.99;84.73;95859.06;4392509;32;20192;-61
2023/10/11 06:10:43;;;;;;;1.67;1.53;;;;;;;16.03;84.96;95854.63;4403324;32;20190;-62
2023/10/11 06:13:17;;;;;;;5.43;2.23;;;;;;;16.02;84.79;95859.19;4390631;32;20218;-62
2023/10/11 06:15:58;;;;;;;13.77;2.23;;;;;;;16.15;85.10;95860.94;4336993;32;20243;-62
2023/10/11 06:21:33;;;;;;;1.77;1.67;;;;;;;16.12;83.57;95858.09;4409482;32;23285;-62
2023/10/11 06:24:00;;;;;;;1.03;1.03;;;;;;;16.11;84.12;95864.56;4395175;32;20230;-62
2023/10/11 06:27:11;;;;;;;1.33;1.07;;;;;;;16.20;83.42;95868.03;4383545;32;20198;-62
2023/10/11 06:29:26;;;;;;;1.97;1.40;;;;;;;16.22;82.09;95863.13;4395393;32;20180;-60
2023/10/11 06:31:53;;;;;;;3.03;2.10;;;;;;;16.12;84.06;95866.12;4394035;32;20194;-60
2023/10/11 06:34:32;;;;;;;0.93;0.93;;;;;;;16.42;88.00;95865.16;4395201;32;20184;-61
2023/10/11 06:37:00;;;;;;;1.07;1.00;;;;;;;16.61;88.44;95869.41;4401474;32;20187;-60
2023/10/11 06:42:22;;;;;;;2.53;1.57;;;;;;;17.03;87.97;95870.44;4387564;32;20185;-61
2023/10/11 06:44:57;;;;;;;1.47;1.37;;;;;;;17.12;85.46;95880.03;4396966;32;20217;-61
2023/10/11 06:47:24;;;;;;;2.63;1.77;;;;;;;17.33;86.02;95876.63;4394781;32;20180;-60
2023/10/11 06:49:57;;;;;;;2.03;1.77;;;;;;;17.29;80.71;95873.81;4382927;32;20184;-62
2023/10/11 06:52:25;;;;;;;11.37;2.77;;;;;;;17.16;79.79;95870.25;4393117;32;20177;-62
2023/10/11 06:57:45;;;;;;;1.80;1.43;;;;;;;16.84;78.61;95876.16;4395874;32;20188;-62
2023/10/11 07:00:28;;;;;;;3.60;1.87;;;;;;;16.71;79.83;95879.81;4398711;32;20393;-62
2023/10/11 07:05:56;;;;;;;2.93;2.53;;;;;;;16.50;80.58;95879.66;4400965;32;20175;-63
2023/10/11 07:08:44;;;;;;;3.27;1.33;;;;;;;16.46;81.19;95879.50;4404171;32;20177;-62
2023/10/11 07:16:41;;;;;;;2.20;1.77;;;;;;;16.59;80.12;95885.81;4362758;32;20231;-62
2023/10/11 07:19:09;;;;;;;0.90;0.90;;;;;;;16.57;81.27;95879.19;4398336;32;20168;-62
2023/10/11 07:24:32;;;;;;;3.50;2.03;;;;;;;16.70;78.88;95878.25;4382623;32;20188;-62
2023/10/11 07:27:09;;;;;;;1.13;1.13;;;;;;;16.70;78.51;95880.91;4371897;32;20197;-62
2023/10/11 07:29:46;;;;;;;1.10;1.00;;;;;;;16.67;77.96;95884.22;4398570;32;20243;-61
2023/10/11 07:32:14;;;;;;;5.03;1.03;;;;;;;16.68;78.05;95881.25;4382925;32;20285;-60
2023/10/11 07:34:41;;;;;;;1.10;0.87;;;;;;;17.28;83.35;95879.50;4377478;32;20198;-61
2023/10/11 07:37:06;;;;;;;3.90;1.67;;;;;;;17.87;81.17;95882.25;4378878;32;20231;-60
2023/10/11 07:39:41;;;;;;;5.70;1.90;;;;;;;18.43;77.85;95887.03;4392808;32;20182;-60
2023/10/11 07:42:08;;;;;;;1.50;1.40;;;;;;;18.89;75.67;95885.22;4406656;32;20238;-61
2023/10/11 07:44:39;;;;;;;11.40;2.40;;;;;;;19.30;73.66;95884.28;4398346;32;20199;-60
2023/10/11 07:47:08;;;;;;;1.33;1.23;;;;;;;19.34;71.49;95884.38;4384061;32;20192;-60
2023/10/11 07:49:40;;;;;;;1.23;1.13;;;;;;;19.58;71.50;95889.81;4396053;32;20180;-60
2023/10/11 07:52:09;;;;;;;1.57;1.47;;;;;;;19.85;69.61;95888.34;4405085;32;20200;-60
2023/10/11 07:54:39;;;;;;;6.93;1.33;;;;;;;20.23;69.94;95890.63;4367925;32;20184;-60
2023/10/11 07:57:27;;;;;;;1.47;1.13;;;;;;;20.46;68.06;95885.53;4375697;32;20274;-61
2023/10/11 08:00:00;;;;;;;0.90;0.90;;;;;;;20.17;65.07;95878.50;4381659;32;20259;-60
2023/10/11 08:02:41;;;;;;;1.53;1.50;;;;;;;20.48;67.34;95888.69;4382389;32;20214;-61
2023/10/11 08:05:13;;;;;;;1.10;1.10;;;;;;;20.29;nan;95881.19;4378108;32;20190;-61
2023/10/11 08:07:40;;;;;;;1.00;1.00;;;;;;;20.40;64.47;95882.28;4356641;32;20200;-61
2023/10/11 08:10:29;;;;;;;1.27;1.27;;;;;;;20.50;66.40;95883.75;4377756;32;20208;-61
2023/10/11 08:12:57;;;;;;;1.27;1.17;;;;;;;20.51;66.65;95874.53;4383285;32;20202;-60
2023/10/11 08:15:26;;;;;;;1.40;1.30;;;;;;;20.22;61.93;95880.97;4401471;32;20234;-63
2023/10/11 08:17:55;;;;;;;0.70;0.70;;;;;;;19.78;62.83;95872.75;4388582;32;20192;-62
2023/10/11 08:20:28;;;;;;;4.70;1.00;;;;;;;19.39;64.24;95882.25;4350287;32;20189;-63
2023/10/11 08:22:57;;;;;;;4.47;2.13;;;;;;;19.06;64.19;95876.16;4379199;32;20214;-62
2023/10/11 08:25:30;;;;;;;4.70;1.90;;;;;;;18.87;66.50;95879.38;4386735;32;20276;-62
2023/10/11 08:30:45;;;;;;;3.10;1.13;;;;;;;18.72;66.65;95874.59;4378492;32;20245;-62
2023/10/11 08:33:14;;;;;;;2.40;1.13;;;;;;;18.69;68.16;95872.59;4399036;32;20245;-62
2023/10/11 08:36:01;;;;;;;1.40;1.30;;;;;;;18.58;67.57;95874.09;4405439;32;20180;-62
2023/10/11 08:38:28;;;;;;;1.47;1.37;;;;;;;18.62;66.95;95866.97;4398718;32;20176;-62
2023/10/11 08:41:06;;;;;;;7.20;2.30;;;;;;;18.63;66.37;95868.53;4395935;32;20255;-61
2023/10/11 08:43:34;;;;;;;1.73;1.27;;;;;;;18.58;66.62;95874.88;4405790;32;20239;-62
2023/10/11 08:46:05;;;;;;;2.53;1.10;;;;;;;18.65;65.68;95871.69;4393178;32;20192;-62
2023/10/11 08:48:38;;;;;;;8.37;1.67;;;;;;;18.63;65.33;95863.16;4389457;32;20206;-62
2023/10/11 08:51:12;;;;;;;1.40;1.17;;;;;;;18.64;65.29;95860.16;4403210;32;20176;-61
2023/10/11 08:54:16;;;;;;;1.83;1.70;;;;;;;18.67;65.27;95861.41;4389130;32;20184;-62
2023/10/11 08:57:07;;;;;;;1.73;0.93;;;;;;;18.71;64.94;95854.22;4396652;32;20202;-62
2023/10/11 08:59:32;;;;;;;1.90;0.80;;;;;;;18.69;64.57;95853.78;4405316;32;20287;-62
2023/10/11 09:02:07;;;;;;;1.40;1.33;;;;;;;18.70;64.67;95855.37;4364592;32;20184;-62
2023/10/11 09:05:07;;;;;;;1.70;0.97;;;;;;;18.75;64.34;95855.91;4400650;32;20285;-62
2023/10/11 09:07:39;;;;;;;1.57;1.47;;;;;;;18.79;65.16;95843.38;4406904;32;20279;-62
2023/10/11 09:10:27;;;;;;;1.47;1.37;;;;;;;18.78;64.38;95835.66;4387553;32;20188;-62
2023/10/11 09:13:00;;;;;;;1.40;1.30;;;;;;;18.80;64.30;95833.41;4393185;32;20266;-62
2023/10/11 09:15:42;;;;;;;1.07;0.97;;;;;;;18.83;64.25;95828.16;4390151;32;20183;-62
2023/10/11 09:18:18;;;;;;;3.07;1.57;;;;;;;18.85;64.19;95834.00;4384325;32;20327;-62
2023/10/11 09:23:46;;;;;;;1.17;1.03;;;;;;;18.95;63.68;95835.47;4399685;32;20289;-62
2023/10/11 09:26:32;;;;;;;10.33;1.97;;;;;;;19.02;62.59;95841.09;4388039;32;20296;-62
2023/10/11 09:28:58;;;;;;;1.40;1.40;;;;;;;19.09;62.93;95845.91;4383120;32;20248;-62
2023/10/11 09:31:25;;;;;;;1.37;1.30;;;;;;;19.13;62.44;95842.19;4383469;32;20192;-62
2023/10/11 09:33:59;;;;;;;6.50;1.93;;;;;;;19.20;62.37;95836.28;4378868;32;20183;-62
2023/10/11 09:36:40;;;;;;;1.17;1.07;;;;;;;19.25;62.12;95837.97;4359378;32;20195;-63
2023/10/11 09:39:15;;;;;;;3.40;1.13;;;;;;;19.24;62.43;95837.19;4403048;32;20245;-63
2023/10/11 09:41:45;;;;;;;10.67;3.03;;;;;;;19.26;62.94;95839.53;4397397;32;20274;-62
2023/10/11 09:44:20;;;;;;;2.27;1.83;;;;;;;19.29;62.45;95834.28;4376042;32;20219;-62
2023/10/11 09:46:49;;;;;;;21.27;1.73;;;;;;;19.31;62.44;95844.72;4334546;32;20294;-62
2023/10/11 09:49:21;;;;;;;1.43;1.37;;;;;;;19.43;61.57;95845.47;4360236;32;20225;-62
2023/10/11 09:52:07;;;;;;;1.37;1.33;;;;;;;19.41;61.97;95838.87;4375391;32;20253;-63
2023/10/11 09:54:37;;;;;;;0.70;0.70;;;;;;;19.45;61.88;95843.25;4375860;32;20196;-62
2023/10/11 09:57:50;;;;;;;1.20;1.07;;;;;;;19.46;62.33;95844.81;4380383;32;20266;-62
2023/10/11 10:00:40;;;;;;;0.73;0.73;;;;;;;19.53;61.58;95844.28;4379146;32;20176;-62
2023/10/11 10:03:13;;;;;;;1.37;1.23;;;;;;;19.56;61.77;95843.59;4375022;32;20218;-62
2023/10/11 10:06:25;;;;;;;1.30;1.30;;;;;;;19.61;62.37;95847.97;4402336;32;20200;-62
2023/10/11 10:09:27;;;;;;;1.23;1.13;;;;;;;19.72;61.22;95841.03;4367299;32;20207;-62
2023/10/11 10:12:09;;;;;;;5.50;1.43;;;;;;;19.68;61.26;95843.59;4365409;32;20205;-62
2023/10/11 10:14:36;;;;;;;5.50;1.10;;;;;;;19.82;60.09;95835.16;4367495;32;20258;-62
2023/10/11 10:17:15;;;;;;;1.83;1.70;;;;;;;19.83;61.50;95837.50;4333919;32;20236;-62
2023/10/11 10:19:46;;;;;;;1.40;1.20;;;;;;;19.85;60.86;95832.56;4350313;32;20204;-62
2023/10/11 10:22:23;;;;;;;3.63;1.40;;;;;;;19.90;59.76;95832.34;4385253;32;20192;-62
2023/10/11 10:24:54;;;;;;;1.57;1.47;;;;;;;19.92;59.84;95829.31;4387227;32;20203;-62
2023/10/11 10:27:52;;;;;;;4.30;1.90;;;;;;;19.99;60.41;95826.81;4356751;32;20200;-62
2023/10/11 10:30:28;;;;;;;1.13;1.13;;;;;;;20.04;58.98;95831.19;4386659;32;20191;-62
2023/10/11 10:33:23;;;;;;;1.33;0.90;;;;;;;20.08;57.05;95826.69;4380058;32;20195;-62
2023/10/11 10:35:49;;;;;;;1.23;1.13;;;;;;;20.06;59.16;95826.25;4370603;32;20188;-63
2023/10/11 10:38:22;;;;;;;2.63;1.67;;;;;;;20.21;55.25;95830.91;4380162;32;20188;-62
2023/10/11 10:41:33;;;;;;;3.60;3.30;;;;;;;20.23;54.67;95828.66;4397680;32;20214;-62
2023/10/11 10:44:09;;;;;;;1.90;1.80;;;;;;;20.33;54.36;95820.09;4338249;32;20214;-61
2023/10/11 10:46:54;;;;;;;0.77;0.77;;;;;;;20.41;54.14;95813.78;4395984;32;20393;-62
2023/10/11 10:49:42;;;;;;;0.77;0.73;;;;;;;20.48;54.81;95816.69;4385095;32;20232;-62
2023/10/11 10:52:21;;;;;;;1.13;0.90;;;;;;;20.54;53.64;95818.00;4380377;32;20191;-62
2023/10/11 10:55:05;;;;;;;2.10;1.17;;;;;;;20.70;53.51;95809.94;4374770;32;20239;-62
2023/10/11 10:57:55;;;;;;;5.50;1.47;;;;;;;20.58;55.96;95810.78;4385309;32;20200;-62
2023/10/11 11:00:25;;;;;;;0.57;0.57;;;;;;;20.67;55.63;95807.16;4369066;32;20222;-62
2023/10/11 11:02:58;;;;;;;2.13;1.93;;;;;;;20.64;55.05;95799.75;4399927;32;20262;-62
2023/10/11 11:06:00;;;;;;;1.60;1.50;;;;;;;20.69;55.83;95791.41;4366429;32;20207;-62
2023/10/11 11:08:44;;;;;;;1.13;0.90;;;;;;;20.63;55.44;95792.78;4342762;32;20196;-62
2023/10/11 11:13:57;;;;;;;1.00;0.77;;;;;;;20.75;55.41;95780.03;4405038;32;20202;-61
2023/10/11 11:16:26;;;;;;;2.03;1.93;;;;;;;20.97;55.53;95778.66;4392287;32;20238;-62
2023/10/11 11:19:24;;;;;;;0.57;0.57;;;;;;;20.97;54.35;95777.87;4403558;32;20239;-62
2023/10/11 11:22:12;;;;;;;1.83;1.70;;;;;;;20.99;54.68;95781.00;4393705;32;20214;-62
2023/10/11 11:25:18;;;;;;;2.67;1.27;;;;;;;20.96;56.44;95774.38;4396052;32;20188;-62
2023/10/11 11:28:18;;;;;;;1.03;1.03;;;;;;;21.05;54.86;95769.56;4382225;32;20189;-62
2023/10/11 11:31:10;;;;;;;1.93;1.83;;;;;;;21.04;55.59;95769.94;4314016;32;20196;-62
2023/10/11 11:34:11;;;;;;;2.37;1.37;;;;;;;21.03;55.91;95774.53;4375505;32;20196;-61
2023/10/11 11:37:04;;;;;;;2.27;1.70;;;;;;;21.11;54.46;95765.50;4377588;32;20188;-62
2023/10/11 11:39:42;;;;;;;6.93;1.10;;;;;;;21.25;55.15;95757.75;4378649;32;20184;-62
2023/10/11 11:42:47;;;;;;;1.83;1.70;;;;;;;21.21;54.70;95754.19;4390229;32;20239;-62
2023/10/11 11:45:03;;;;;;;1.57;1.07;;;;;;;21.18;55.24;95754.87;4405191;32;20200;-62
2023/10/11 11:47:58;;;;;;;1.53;1.00;;;;;;;21.14;55.17;95754.00;4388523;32;20199;-62
2023/10/11 11:50:38;;;;;;;2.73;1.20;;;;;;;21.14;55.71;95747.81;4343926;32;20246;-62
2023/10/11 11:53:06;;;;;;;0.60;0.60;;;;;;;21.22;55.05;95744.16;4383439;32;20206;-63
2023/10/11 11:55:34;;;;;;;2.93;1.13;;;;;;;21.17;55.34;95745.22;4389218;32;20192;-62
2023/10/11 11:58:16;;;;;;;1.47;1.30;;;;;;;21.25;54.80;95732.69;4395913;32;20192;-62
2023/10/11 12:03:54;;;;;;;1.60;0.50;;;;;;;21.22;55.66;95742.25;4369684;32;20184;-62
2023/10/11 12:06:24;;;;;;;1.03;0.77;;;;;;;21.38;53.65;95725.25;4374314;32;20195;-63
2023/10/11 12:09:02;;;;;;;0.80;0.80;;;;;;;21.34;54.20;95725.19;4395878;32;20210;-63
2023/10/11 12:11:39;;;;;;;1.87;1.07;;;;;;;21.45;53.82;95722.69;4399901;32;20212;-63
2023/10/11 12:14:10;;;;;;;0.83;0.83;;;;;;;21.46;53.99;95727.75;4395220;32;20188;-63
2023/10/11 12:16:42;;;;;;;0.60;0.60;;;;;;;21.43;53.18;95725.75;4401451;32;20313;-63
2023/10/11 12:19:14;;;;;;;2.27;1.10;;;;;;;21.45;54.04;95720.00;4384617;32;20192;-63
2023/10/11 12:21:42;;;;;;;6.30;1.93;;;;;;;21.57;54.27;95717.97;4352253;32;20228;-60
2023/10/11 12:24:10;;;;;;;1.33;1.23;;;;;;;21.55;54.62;95708.66;4388611;32;20189;-61
2023/10/11 12:26:57;;;;;;;4.27;1.67;;;;;;;21.55;54.80;95719.47;4405313;32;20183;-62
2023/10/11 12:29:32;;;;;;;0.80;0.80;;;;;;;21.54;55.24;95709.78;4397505;32;20252;-61
2023/10/11 12:31:59;;;;;;;1.27;1.17;;;;;;;21.60;54.00;95700.28;4403830;32;20251;-62
2023/10/11 12:34:25;;;;;;;1.00;0.90;;;;;;;21.62;54.54;95712.28;4366419;32;20282;-61
2023/10/11 12:37:02;;;;;;;1.87;1.37;;;;;;;21.62;54.29;95701.47;4398132;32;20212;-62
2023/10/11 12:39:33;;;;;;;1.23;1.10;;;;;;;21.59;52.10;95704.13;4368966;32;20233;-61
2023/10/11 12:42:12;;;;;;;4.80;1.80;;;;;;;21.77;53.72;95705.28;4363456;32;20288;-62
2023/10/11 12:44:41;;;;;;;10.33;1.60;;;;;;;21.76;51.08;95692.13;4397906;32;20192;-62
2023/10/11 12:47:10;;;;;;;13.83;1.87;;;;;;;21.74;52.14;95694.37;4401920;32;20192;-62
2023/10/11 12:49:38;;;;;;;1.50;0.87;;;;;;;21.74;52.52;95694.37;4368774;32;20196;-62
2023/10/11 12:52:06;;;;;;;3.10;1.73;;;;;;;21.95;50.18;95684.00;4336716;32;20258;-62
2023/10/11 12:54:33;;;;;;;1.87;0.83;;;;;;;21.97;49.90;95681.72;4402940;32;20196;-62
2023/10/11 12:57:00;;;;;;;1.23;1.13;;;;;;;21.91;50.37;95683.94;4402489;32;20248;-62
2023/10/11 12:59:27;;;;;;;7.77;0.93;;;;;;;21.92;50.01;95685.50;4389169;32;20230;-63
2023/10/11 13:01:56;;;;;;;1.77;0.90;;;;;;;22.05;48.37;95699.66;4339831;32;20211;-62
2023/10/11 13:04:30;;;;;;;0.73;0.73;;;;;;;22.03;49.98;95695.78;4397111;32;20262;-62